sensor_id;sensor_type;location;lat;lon;timestamp;P1;durP1;ratioP1;P2;durP2;ratioP2
10811;SDS011;5458;51.496;7.334;2022-09-23T00:01:00;3.40;;;3.10;;
10811;SDS011;5458;51.496;7.334;2022-09-23T00:03:28;5.07;;;4.18;;
10811;SDS011;5458;51.496;7.334;2022-09-23T00:06:02;3.63;;;3.38;;
10811;SDS011;5458;51.496;7.334;2022-09-23T00:08:29;3.60;;;3.28;;
10811;SDS011;5458;51.496;7.334;2022-09-23T00:10:55;3.53;;;2.88;;
10811;SDS011;5458;51.496;7.334;2022-09-23T00:13:24;4.18;;;3.10;;
10811;SDS011;5458;51.496;7.334;2022-09-23T00:15:50;3.92;;;3.20;;
10811;SDS011;5458;51.496;7.334;2022-09-23T00:18:16;4.75;;;3.20;;
10811;SDS011;5458;51.496;7.334;2022-09-23T00:20:42;4.70;;;3.33;;
10811;SDS011;5458;51.496;7.334;2022-09-23T00:23:08;4.43;;;2.95;;
10811;SDS011;5458;51.496;7.334;2022-09-23T00:25:34;3.85;;;3.53;;
10811;SDS011;5458;51.496;7.334;2022-09-23T00:28:00;4.25;;;3.53;;
10811;SDS011;5458;51.496;7.334;2022-09-23T00:30:27;3.67;;;3.00;;
10811;SDS011;5458;51.496;7.334;2022-09-23T00:32:53;3.90;;;3.10;;
10811;SDS011;5458;51.496;7.334;2022-09-23T00:35:20;4.35;;;3.80;;
10811;SDS011;5458;51.496;7.334;2022-09-23T00:37:46;3.80;;;3.47;;
10811;SDS011;5458;51.496;7.334;2022-09-23T00:40:12;3.58;;;3.20;;
10811;SDS011;5458;51.496;7.334;2022-09-23T00:42:44;4.00;;;3.05;;
10811;SDS011;5458;51.496;7.334;2022-09-23T00:45:10;3.30;;;3.00;;
10811;SDS011;5458;51.496;7.334;2022-09-23T00:47:57;4.22;;;2.80;;
10811;SDS011;5458;51.496;7.334;2022-09-23T00:50:26;3.35;;;3.05;;
10811;SDS011;5458;51.496;7.334;2022-09-23T00:53:03;3.35;;;3.05;;
10811;SDS011;5458;51.496;7.334;2022-09-23T00:55:32;3.88;;;2.95;;
10811;SDS011;5458;51.496;7.334;2022-09-23T00:58:03;3.83;;;3.53;;
10811;SDS011;5458;51.496;7.334;2022-09-23T01:00:31;4.15;;;2.80;;
10811;SDS011;5458;51.496;7.334;2022-09-23T01:02:57;5.45;;;3.05;;
10811;SDS011;5458;51.496;7.334;2022-09-23T01:05:24;3.55;;;3.22;;
10811;SDS011;5458;51.496;7.334;2022-09-23T01:07:50;3.00;;;2.70;;
10811;SDS011;5458;51.496;7.334;2022-09-23T01:10:17;3.30;;;2.78;;
10811;SDS011;5458;51.496;7.334;2022-09-23T01:12:48;3.88;;;2.45;;
10811;SDS011;5458;51.496;7.334;2022-09-23T01:15:24;4.32;;;2.70;;
10811;SDS011;5458;51.496;7.334;2022-09-23T01:18:09;3.78;;;2.50;;
10811;SDS011;5458;51.496;7.334;2022-09-23T01:29:32;3.42;;;2.28;;
10811;SDS011;5458;51.496;7.334;2022-09-23T01:37:42;3.25;;;2.53;;
10811;SDS011;5458;51.496;7.334;2022-09-23T01:40:13;3.10;;;2.85;;
10811;SDS011;5458;51.496;7.334;2022-09-23T01:42:51;4.13;;;2.22;;
10811;SDS011;5458;51.496;7.334;2022-09-23T01:48:01;2.92;;;2.45;;
10811;SDS011;5458;51.496;7.334;2022-09-23T01:50:46;2.35;;;2.08;;
10811;SDS011;5458;51.496;7.334;2022-09-23T01:53:24;2.67;;;2.33;;
10811;SDS011;5458;51.496;7.334;2022-09-23T01:56:25;2.88;;;2.60;;
10811;SDS011;5458;51.496;7.334;2022-09-23T02:01:44;2.60;;;2.15;;
10811;SDS011;5458;51.496;7.334;2022-09-23T02:04:19;4.07;;;2.47;;
10811;SDS011;5458;51.496;7.334;2022-09-23T02:07:05;2.28;;;2.08;;
10811;SDS011;5458;51.496;7.334;2022-09-23T02:09:41;3.42;;;2.67;;
10811;SDS011;5458;51.496;7.334;2022-09-23T02:12:11;4.15;;;2.75;;
10811;SDS011;5458;51.496;7.334;2022-09-23T02:17:23;3.65;;;2.35;;
10811;SDS011;5458;51.496;7.334;2022-09-23T02:19:59;3.97;;;2.28;;
10811;SDS011;5458;51.496;7.334;2022-09-23T02:22:37;3.10;;;2.22;;
10811;SDS011;5458;51.496;7.334;2022-09-23T02:25:06;2.70;;;2.50;;
10811;SDS011;5458;51.496;7.334;2022-09-23T02:27:41;2.60;;;2.20;;
10811;SDS011;5458;51.496;7.334;2022-09-23T02:30:20;4.75;;;2.03;;
10811;SDS011;5458;51.496;7.334;2022-09-23T02:35:32;2.83;;;2.42;;
10811;SDS011;5458;51.496;7.334;2022-09-23T02:38:27;2.70;;;2.30;;
10811;SDS011;5458;51.496;7.334;2022-09-23T02:41:14;2.60;;;2.40;;
10811;SDS011;5458;51.496;7.334;2022-09-23T02:43:52;3.03;;;2.08;;
10811;SDS011;5458;51.496;7.334;2022-09-23T02:46:21;3.08;;;2.30;;
10811;SDS011;5458;51.496;7.334;2022-09-23T02:49:04;2.47;;;2.28;;
10811;SDS011;5458;51.496;7.334;2022-09-23T02:51:41;2.85;;;2.40;;
10811;SDS011;5458;51.496;7.334;2022-09-23T02:54:10;3.10;;;2.58;;
10811;SDS011;5458;51.496;7.334;2022-09-23T02:56:39;2.65;;;2.30;;
10811;SDS011;5458;51.496;7.334;2022-09-23T02:59:05;2.88;;;2.28;;
10811;SDS011;5458;51.496;7.334;2022-09-23T03:06:49;2.95;;;2.70;;
10811;SDS011;5458;51.496;7.334;2022-09-23T03:09:33;2.33;;;2.13;;
10811;SDS011;5458;51.496;7.334;2022-09-23T03:15:21;3.15;;;2.30;;
10811;SDS011;5458;51.496;7.334;2022-09-23T03:18:16;3.83;;;2.67;;
10811;SDS011;5458;51.496;7.334;2022-09-23T03:21:00;4.00;;;2.50;;
10811;SDS011;5458;51.496;7.334;2022-09-23T03:23:33;4.15;;;2.58;;
10811;SDS011;5458;51.496;7.334;2022-09-23T03:26:04;2.67;;;2.47;;
10811;SDS011;5458;51.496;7.334;2022-09-23T03:28:36;2.65;;;2.45;;
10811;SDS011;5458;51.496;7.334;2022-09-23T03:31:05;7.85;;;2.85;;
10811;SDS011;5458;51.496;7.334;2022-09-23T03:33:32;4.18;;;2.42;;
10811;SDS011;5458;51.496;7.334;2022-09-23T03:36:04;4.05;;;2.75;;
10811;SDS011;5458;51.496;7.334;2022-09-23T03:38:56;3.10;;;2.10;;
10811;SDS011;5458;51.496;7.334;2022-09-23T03:41:30;2.67;;;2.47;;
10811;SDS011;5458;51.496;7.334;2022-09-23T03:43:58;2.80;;;2.58;;
10811;SDS011;5458;51.496;7.334;2022-09-23T03:46:25;2.95;;;2.00;;
10811;SDS011;5458;51.496;7.334;2022-09-23T03:48:58;2.67;;;2.30;;
10811;SDS011;5458;51.496;7.334;2022-09-23T03:51:31;2.33;;;2.13;;
10811;SDS011;5458;51.496;7.334;2022-09-23T03:53:57;3.22;;;2.08;;
10811;SDS011;5458;51.496;7.334;2022-09-23T03:56:23;3.22;;;2.42;;
10811;SDS011;5458;51.496;7.334;2022-09-23T03:58:48;3.15;;;2.15;;
10811;SDS011;5458;51.496;7.334;2022-09-23T04:01:14;2.35;;;1.98;;
10811;SDS011;5458;51.496;7.334;2022-09-23T04:03:39;2.58;;;2.20;;
10811;SDS011;5458;51.496;7.334;2022-09-23T04:06:05;4.05;;;2.20;;
10811;SDS011;5458;51.496;7.334;2022-09-23T04:08:31;3.75;;;2.20;;
10811;SDS011;5458;51.496;7.334;2022-09-23T04:10:59;2.83;;;2.22;;
10811;SDS011;5458;51.496;7.334;2022-09-23T04:13:26;2.90;;;2.40;;
10811;SDS011;5458;51.496;7.334;2022-09-23T04:15:53;3.42;;;2.22;;
10811;SDS011;5458;51.496;7.334;2022-09-23T04:18:19;2.60;;;2.40;;
10811;SDS011;5458;51.496;7.334;2022-09-23T04:20:45;4.38;;;2.47;;
10811;SDS011;5458;51.496;7.334;2022-09-23T04:23:11;2.53;;;2.03;;
10811;SDS011;5458;51.496;7.334;2022-09-23T04:25:42;2.13;;;2.03;;
10811;SDS011;5458;51.496;7.334;2022-09-23T04:28:11;2.67;;;2.28;;
10811;SDS011;5458;51.496;7.334;2022-09-23T04:30:38;3.60;;;2.08;;
10811;SDS011;5458;51.496;7.334;2022-09-23T04:33:06;2.53;;;2.33;;
10811;SDS011;5458;51.496;7.334;2022-09-23T04:35:32;2.33;;;2.13;;
10811;SDS011;5458;51.496;7.334;2022-09-23T04:37:57;2.17;;;2.03;;
10811;SDS011;5458;51.496;7.334;2022-09-23T04:40:23;2.13;;;1.90;;
10811;SDS011;5458;51.496;7.334;2022-09-23T04:42:49;2.53;;;2.28;;
10811;SDS011;5458;51.496;7.334;2022-09-23T04:45:14;2.80;;;2.40;;
10811;SDS011;5458;51.496;7.334;2022-09-23T04:47:40;2.10;;;1.83;;
10811;SDS011;5458;51.496;7.334;2022-09-23T04:50:06;3.00;;;1.98;;
10811;SDS011;5458;51.496;7.334;2022-09-23T04:52:32;2.15;;;1.80;;
10811;SDS011;5458;51.496;7.334;2022-09-23T04:54:57;3.85;;;2.05;;
10811;SDS011;5458;51.496;7.334;2022-09-23T04:57:23;3.28;;;2.25;;
10811;SDS011;5458;51.496;7.334;2022-09-23T04:59:49;2.35;;;2.13;;
10811;SDS011;5458;51.496;7.334;2022-09-23T05:02:14;4.20;;;2.38;;
10811;SDS011;5458;51.496;7.334;2022-09-23T05:04:40;5.10;;;2.80;;
10811;SDS011;5458;51.496;7.334;2022-09-23T05:07:06;3.33;;;2.40;;
10811;SDS011;5458;51.496;7.334;2022-09-23T05:09:31;3.45;;;2.58;;
10811;SDS011;5458;51.496;7.334;2022-09-23T05:11:57;3.38;;;2.40;;
10811;SDS011;5458;51.496;7.334;2022-09-23T05:14:23;3.55;;;2.60;;
10811;SDS011;5458;51.496;7.334;2022-09-23T05:16:48;5.00;;;2.45;;
10811;SDS011;5458;51.496;7.334;2022-09-23T05:19:14;4.00;;;2.50;;
10811;SDS011;5458;51.496;7.334;2022-09-23T05:21:40;4.70;;;2.72;;
10811;SDS011;5458;51.496;7.334;2022-09-23T05:24:06;6.53;;;3.38;;
10811;SDS011;5458;51.496;7.334;2022-09-23T05:26:31;4.55;;;2.88;;
10811;SDS011;5458;51.496;7.334;2022-09-23T05:28:57;3.53;;;2.40;;
10811;SDS011;5458;51.496;7.334;2022-09-23T05:31:27;2.55;;;2.35;;
10811;SDS011;5458;51.496;7.334;2022-09-23T05:33:54;2.67;;;2.47;;
10811;SDS011;5458;51.496;7.334;2022-09-23T05:36:22;3.28;;;2.30;;
10811;SDS011;5458;51.496;7.334;2022-09-23T05:38:49;3.63;;;2.40;;
10811;SDS011;5458;51.496;7.334;2022-09-23T05:41:15;2.95;;;2.40;;
10811;SDS011;5458;51.496;7.334;2022-09-23T05:43:42;3.35;;;2.40;;
10811;SDS011;5458;51.496;7.334;2022-09-23T05:48:47;5.07;;;3.13;;
10811;SDS011;5458;51.496;7.334;2022-09-23T05:51:14;4.57;;;2.40;;
10811;SDS011;5458;51.496;7.334;2022-09-23T05:53:44;4.53;;;2.50;;
10811;SDS011;5458;51.496;7.334;2022-09-23T05:56:11;6.60;;;2.22;;
10811;SDS011;5458;51.496;7.334;2022-09-23T05:58:41;2.60;;;2.40;;
10811;SDS011;5458;51.496;7.334;2022-09-23T06:03:41;3.33;;;2.35;;
10811;SDS011;5458;51.496;7.334;2022-09-23T06:06:10;4.50;;;2.60;;
10811;SDS011;5458;51.496;7.334;2022-09-23T06:08:38;2.88;;;2.50;;
10811;SDS011;5458;51.496;7.334;2022-09-23T06:11:05;4.00;;;2.60;;
10811;SDS011;5458;51.496;7.334;2022-09-23T06:13:32;3.58;;;2.40;;
10811;SDS011;5458;51.496;7.334;2022-09-23T06:16:10;2.85;;;2.65;;
10811;SDS011;5458;51.496;7.334;2022-09-23T06:18:38;4.40;;;2.67;;
10811;SDS011;5458;51.496;7.334;2022-09-23T06:21:12;2.00;;;1.80;;
10811;SDS011;5458;51.496;7.334;2022-09-23T06:23:39;4.00;;;2.47;;
10811;SDS011;5458;51.496;7.334;2022-09-23T06:26:05;2.63;;;2.42;;
10811;SDS011;5458;51.496;7.334;2022-09-23T06:28:32;5.43;;;2.13;;
10811;SDS011;5458;51.496;7.334;2022-09-23T06:31:00;2.78;;;2.10;;
10811;SDS011;5458;51.496;7.334;2022-09-23T06:33:27;7.65;;;2.20;;
10811;SDS011;5458;51.496;7.334;2022-09-23T06:35:57;3.08;;;2.22;;
10811;SDS011;5458;51.496;7.334;2022-09-23T06:38:25;3.58;;;2.33;;
10811;SDS011;5458;51.496;7.334;2022-09-23T06:40:51;3.85;;;2.17;;
10811;SDS011;5458;51.496;7.334;2022-09-23T06:43:18;3.92;;;2.03;;
10811;SDS011;5458;51.496;7.334;2022-09-23T06:45:45;2.63;;;2.38;;
10811;SDS011;5458;51.496;7.334;2022-09-23T06:48:11;2.58;;;1.70;;
10811;SDS011;5458;51.496;7.334;2022-09-23T06:50:37;2.63;;;2.33;;
10811;SDS011;5458;51.496;7.334;2022-09-23T06:53:02;4.00;;;2.38;;
10811;SDS011;5458;51.496;7.334;2022-09-23T06:55:28;5.28;;;2.10;;
10811;SDS011;5458;51.496;7.334;2022-09-23T06:57:56;5.72;;;2.55;;
10811;SDS011;5458;51.496;7.334;2022-09-23T07:00:22;3.67;;;2.13;;
10811;SDS011;5458;51.496;7.334;2022-09-23T07:02:47;2.10;;;1.98;;
10811;SDS011;5458;51.496;7.334;2022-09-23T07:05:13;2.00;;;1.60;;
10811;SDS011;5458;51.496;7.334;2022-09-23T07:07:41;2.60;;;1.85;;
10811;SDS011;5458;51.496;7.334;2022-09-23T07:10:07;5.47;;;1.77;;
10811;SDS011;5458;51.496;7.334;2022-09-23T07:12:34;2.63;;;1.70;;
10811;SDS011;5458;51.496;7.334;2022-09-23T07:15:00;3.92;;;1.88;;
10811;SDS011;5458;51.496;7.334;2022-09-23T07:17:25;2.05;;;1.63;;
10811;SDS011;5458;51.496;7.334;2022-09-23T07:19:51;3.92;;;1.65;;
10811;SDS011;5458;51.496;7.334;2022-09-23T07:22:19;2.20;;;1.73;;
10811;SDS011;5458;51.496;7.334;2022-09-23T07:24:45;3.75;;;1.90;;
10811;SDS011;5458;51.496;7.334;2022-09-23T07:27:11;2.28;;;1.50;;
10811;SDS011;5458;51.496;7.334;2022-09-23T07:29:47;2.00;;;1.80;;
10811;SDS011;5458;51.496;7.334;2022-09-23T07:32:13;2.47;;;1.55;;
10811;SDS011;5458;51.496;7.334;2022-09-23T07:34:38;3.65;;;1.42;;
10811;SDS011;5458;51.496;7.334;2022-09-23T07:37:04;2.80;;;1.70;;
10811;SDS011;5458;51.496;7.334;2022-09-23T07:39:30;3.65;;;2.05;;
10811;SDS011;5458;51.496;7.334;2022-09-23T07:41:55;3.33;;;1.73;;
10811;SDS011;5458;51.496;7.334;2022-09-23T07:44:21;2.05;;;1.60;;
10811;SDS011;5458;51.496;7.334;2022-09-23T07:46:47;1.98;;;1.65;;
10811;SDS011;5458;51.496;7.334;2022-09-23T07:49:15;3.47;;;1.42;;
10811;SDS011;5458;51.496;7.334;2022-09-23T07:51:42;3.17;;;1.88;;
10811;SDS011;5458;51.496;7.334;2022-09-23T07:54:12;5.35;;;1.95;;
10811;SDS011;5458;51.496;7.334;2022-09-23T07:56:40;3.08;;;1.70;;
10811;SDS011;5458;51.496;7.334;2022-09-23T07:59:07;2.67;;;1.63;;
10811;SDS011;5458;51.496;7.334;2022-09-23T08:01:49;3.47;;;1.77;;
10811;SDS011;5458;51.496;7.334;2022-09-23T08:04:20;2.80;;;2.10;;
10811;SDS011;5458;51.496;7.334;2022-09-23T08:06:53;2.35;;;2.15;;
10811;SDS011;5458;51.496;7.334;2022-09-23T08:09:21;3.03;;;2.03;;
10811;SDS011;5458;51.496;7.334;2022-09-23T08:11:49;4.07;;;1.98;;
10811;SDS011;5458;51.496;7.334;2022-09-23T08:14:15;2.30;;;1.90;;
10811;SDS011;5458;51.496;7.334;2022-09-23T08:16:42;2.95;;;1.70;;
10811;SDS011;5458;51.496;7.334;2022-09-23T08:19:09;2.83;;;1.48;;
10811;SDS011;5458;51.496;7.334;2022-09-23T08:21:36;3.03;;;1.75;;
10811;SDS011;5458;51.496;7.334;2022-09-23T08:24:03;4.03;;;2.33;;
10811;SDS011;5458;51.496;7.334;2022-09-23T08:26:32;5.70;;;1.75;;
10811;SDS011;5458;51.496;7.334;2022-09-23T08:28:58;2.50;;;1.65;;
10811;SDS011;5458;51.496;7.334;2022-09-23T08:31:24;2.92;;;2.10;;
10811;SDS011;5458;51.496;7.334;2022-09-23T08:33:53;5.22;;;1.80;;
10811;SDS011;5458;51.496;7.334;2022-09-23T08:36:20;3.55;;;1.88;;
10811;SDS011;5458;51.496;7.334;2022-09-23T08:38:46;3.28;;;1.58;;
10811;SDS011;5458;51.496;7.334;2022-09-23T08:44:09;3.38;;;1.67;;
10811;SDS011;5458;51.496;7.334;2022-09-23T08:46:54;2.22;;;1.70;;
10811;SDS011;5458;51.496;7.334;2022-09-23T08:49:38;2.90;;;1.90;;
10811;SDS011;5458;51.496;7.334;2022-09-23T08:52:12;5.45;;;1.40;;
10811;SDS011;5458;51.496;7.334;2022-09-23T08:54:42;2.78;;;1.50;;
10811;SDS011;5458;51.496;7.334;2022-09-23T08:57:08;1.70;;;1.60;;
10811;SDS011;5458;51.496;7.334;2022-09-23T08:59:51;4.80;;;2.15;;
10811;SDS011;5458;51.496;7.334;2022-09-23T09:02:17;3.17;;;1.60;;
10811;SDS011;5458;51.496;7.334;2022-09-23T09:04:45;4.20;;;1.98;;
10811;SDS011;5458;51.496;7.334;2022-09-23T09:07:22;3.33;;;1.67;;
10811;SDS011;5458;51.496;7.334;2022-09-23T09:09:57;4.75;;;1.85;;
10811;SDS011;5458;51.496;7.334;2022-09-23T09:12:33;1.85;;;1.30;;
10811;SDS011;5458;51.496;7.334;2022-09-23T09:15:15;5.05;;;2.00;;
10811;SDS011;5458;51.496;7.334;2022-09-23T09:23:02;3.67;;;1.75;;
10811;SDS011;5458;51.496;7.334;2022-09-23T09:25:49;4.40;;;1.80;;
10811;SDS011;5458;51.496;7.334;2022-09-23T09:28:26;2.45;;;1.55;;
10811;SDS011;5458;51.496;7.334;2022-09-23T09:31:40;2.35;;;1.40;;
10811;SDS011;5458;51.496;7.334;2022-09-23T09:33:53;1.80;;;1.45;;
10811;SDS011;5458;51.496;7.334;2022-09-23T09:39:12;2.53;;;1.80;;
10811;SDS011;5458;51.496;7.334;2022-09-23T09:41:39;2.83;;;1.35;;
10811;SDS011;5458;51.496;7.334;2022-09-23T09:44:15;2.75;;;1.75;;
10811;SDS011;5458;51.496;7.334;2022-09-23T09:46:52;2.55;;;1.30;;
10811;SDS011;5458;51.496;7.334;2022-09-23T09:52:21;1.65;;;1.20;;
10811;SDS011;5458;51.496;7.334;2022-09-23T09:54:50;2.28;;;1.30;;
10811;SDS011;5458;51.496;7.334;2022-09-23T09:57:17;2.53;;;1.25;;
10811;SDS011;5458;51.496;7.334;2022-09-23T09:59:53;2.42;;;1.13;;
10811;SDS011;5458;51.496;7.334;2022-09-23T10:02:27;3.28;;;1.30;;
10811;SDS011;5458;51.496;7.334;2022-09-23T10:04:58;1.90;;;1.40;;
10811;SDS011;5458;51.496;7.334;2022-09-23T10:07:30;3.17;;;1.30;;
10811;SDS011;5458;51.496;7.334;2022-09-23T10:10:10;1.80;;;1.38;;
10811;SDS011;5458;51.496;7.334;2022-09-23T10:12:48;4.53;;;1.42;;
10811;SDS011;5458;51.496;7.334;2022-09-23T10:17:52;1.88;;;1.00;;
10811;SDS011;5458;51.496;7.334;2022-09-23T10:20:18;2.70;;;1.30;;
10811;SDS011;5458;51.496;7.334;2022-09-23T10:22:44;2.40;;;1.50;;
10811;SDS011;5458;51.496;7.334;2022-09-23T10:25:20;1.90;;;1.20;;
10811;SDS011;5458;51.496;7.334;2022-09-23T10:27:50;1.60;;;1.45;;
10811;SDS011;5458;51.496;7.334;2022-09-23T10:30:20;1.40;;;1.13;;
10811;SDS011;5458;51.496;7.334;2022-09-23T10:32:48;1.42;;;0.95;;
10811;SDS011;5458;51.496;7.334;2022-09-23T10:57:55;1.80;;;1.33;;
10811;SDS011;5458;51.496;7.334;2022-09-23T11:00:59;1.65;;;1.33;;
10811;SDS011;5458;51.496;7.334;2022-09-23T11:03:46;1.80;;;1.70;;
10811;SDS011;5458;51.496;7.334;2022-09-23T11:06:27;2.08;;;1.83;;
10811;SDS011;5458;51.496;7.334;2022-09-23T11:09:16;2.83;;;1.30;;
10811;SDS011;5458;51.496;7.334;2022-09-23T11:14:36;2.42;;;1.40;;
10811;SDS011;5458;51.496;7.334;2022-09-23T11:19:57;1.90;;;1.50;;
10811;SDS011;5458;51.496;7.334;2022-09-23T11:39:00;3.15;;;1.42;;
10811;SDS011;5458;51.496;7.334;2022-09-23T11:41:33;1.40;;;1.30;;
10811;SDS011;5458;51.496;7.334;2022-09-23T11:44:05;1.40;;;1.20;;
10811;SDS011;5458;51.496;7.334;2022-09-23T11:46:42;1.60;;;1.20;;
10811;SDS011;5458;51.496;7.334;2022-09-23T11:49:17;2.60;;;1.17;;
10811;SDS011;5458;51.496;7.334;2022-09-23T12:00:12;1.10;;;1.00;;
10811;SDS011;5458;51.496;7.334;2022-09-23T12:05:32;1.73;;;1.00;;
10811;SDS011;5458;51.496;7.334;2022-09-23T12:13:48;3.78;;;1.10;;
10811;SDS011;5458;51.496;7.334;2022-09-23T12:26:32;3.28;;;1.00;;
10811;SDS011;5458;51.496;7.334;2022-09-23T12:28:59;2.35;;;1.00;;
10811;SDS011;5458;51.496;7.334;2022-09-23T12:31:28;1.30;;;1.20;;
10811;SDS011;5458;51.496;7.334;2022-09-23T12:33:59;2.20;;;1.00;;
10811;SDS011;5458;51.496;7.334;2022-09-23T12:36:31;3.25;;;1.20;;
10811;SDS011;5458;51.496;7.334;2022-09-23T12:39:05;2.38;;;1.00;;
10811;SDS011;5458;51.496;7.334;2022-09-23T12:41:46;1.67;;;1.02;;
10811;SDS011;5458;51.496;7.334;2022-09-23T12:49:52;2.20;;;0.88;;
10811;SDS011;5458;51.496;7.334;2022-09-23T12:54:45;1.63;;;1.08;;
10811;SDS011;5458;51.496;7.334;2022-09-23T12:57:12;1.10;;;0.90;;
10811;SDS011;5458;51.496;7.334;2022-09-23T13:05:19;2.95;;;1.15;;
10811;SDS011;5458;51.496;7.334;2022-09-23T13:08:15;3.35;;;0.90;;
10811;SDS011;5458;51.496;7.334;2022-09-23T13:10:53;2.65;;;0.95;;
10811;SDS011;5458;51.496;7.334;2022-09-23T13:13:25;2.20;;;1.02;;
10811;SDS011;5458;51.496;7.334;2022-09-23T13:16:13;2.65;;;1.00;;
10811;SDS011;5458;51.496;7.334;2022-09-23T13:26:38;1.88;;;1.02;;
10811;SDS011;5458;51.496;7.334;2022-09-23T13:29:09;2.95;;;1.00;;
10811;SDS011;5458;51.496;7.334;2022-09-23T13:32:02;2.70;;;0.80;;
10811;SDS011;5458;51.496;7.334;2022-09-23T13:34:30;3.33;;;1.00;;
10811;SDS011;5458;51.496;7.334;2022-09-23T13:37:09;2.50;;;1.00;;
10811;SDS011;5458;51.496;7.334;2022-09-23T13:39:41;3.38;;;1.00;;
10811;SDS011;5458;51.496;7.334;2022-09-23T13:42:07;1.92;;;1.17;;
10811;SDS011;5458;51.496;7.334;2022-09-23T13:44:44;3.95;;;1.23;;
10811;SDS011;5458;51.496;7.334;2022-09-23T13:47:10;1.13;;;0.90;;
10811;SDS011;5458;51.496;7.334;2022-09-23T13:49:37;4.30;;;0.88;;
10811;SDS011;5458;51.496;7.334;2022-09-23T13:52:05;1.77;;;0.90;;
10811;SDS011;5458;51.496;7.334;2022-09-23T13:54:55;2.40;;;0.80;;
10811;SDS011;5458;51.496;7.334;2022-09-23T13:57:28;1.70;;;1.08;;
10811;SDS011;5458;51.496;7.334;2022-09-23T14:02:42;1.92;;;1.10;;
10811;SDS011;5458;51.496;7.334;2022-09-23T14:05:11;2.40;;;1.00;;
10811;SDS011;5458;51.496;7.334;2022-09-23T14:07:38;2.85;;;1.30;;
10811;SDS011;5458;51.496;7.334;2022-09-23T14:10:04;2.85;;;1.33;;
10811;SDS011;5458;51.496;7.334;2022-09-23T14:12:31;3.35;;;1.40;;
10811;SDS011;5458;51.496;7.334;2022-09-23T14:15:02;1.77;;;1.17;;
10811;SDS011;5458;51.496;7.334;2022-09-23T14:17:28;3.17;;;1.33;;
10811;SDS011;5458;51.496;7.334;2022-09-23T14:19:54;2.28;;;1.35;;
10811;SDS011;5458;51.496;7.334;2022-09-23T14:22:21;4.70;;;1.52;;
10811;SDS011;5458;51.496;7.334;2022-09-23T14:24:54;3.40;;;1.58;;
10811;SDS011;5458;51.496;7.334;2022-09-23T14:27:26;5.22;;;1.92;;
10811;SDS011;5458;51.496;7.334;2022-09-23T14:29:54;2.45;;;1.70;;
10811;SDS011;5458;51.496;7.334;2022-09-23T14:32:21;4.60;;;2.05;;
10811;SDS011;5458;51.496;7.334;2022-09-23T14:34:50;3.67;;;2.25;;
10811;SDS011;5458;51.496;7.334;2022-09-23T14:40:20;4.10;;;1.52;;
10811;SDS011;5458;51.496;7.334;2022-09-23T14:42:49;10.45;;;1.98;;
10811;SDS011;5458;51.496;7.334;2022-09-23T14:45:23;1.83;;;1.52;;
10811;SDS011;5458;51.496;7.334;2022-09-23T14:47:51;3.78;;;1.98;;
10811;SDS011;5458;51.496;7.334;2022-09-23T14:50:22;6.28;;;2.22;;
10811;SDS011;5458;51.496;7.334;2022-09-23T14:55:49;1.90;;;1.70;;
10811;SDS011;5458;51.496;7.334;2022-09-23T14:58:17;3.50;;;1.63;;
10811;SDS011;5458;51.496;7.334;2022-09-23T15:01:03;2.97;;;2.10;;
10811;SDS011;5458;51.496;7.334;2022-09-23T15:03:54;5.30;;;1.75;;
10811;SDS011;5458;51.496;7.334;2022-09-23T15:06:21;4.40;;;2.08;;
10811;SDS011;5458;51.496;7.334;2022-09-23T15:08:47;2.83;;;1.95;;
10811;SDS011;5458;51.496;7.334;2022-09-23T15:11:14;4.38;;;1.92;;
10811;SDS011;5458;51.496;7.334;2022-09-23T15:13:41;2.15;;;1.70;;
10811;SDS011;5458;51.496;7.334;2022-09-23T15:16:08;4.38;;;2.05;;
10811;SDS011;5458;51.496;7.334;2022-09-23T15:18:38;3.80;;;2.03;;
10811;SDS011;5458;51.496;7.334;2022-09-23T15:21:10;4.05;;;2.45;;
10811;SDS011;5458;51.496;7.334;2022-09-23T15:26:07;3.53;;;2.00;;
10811;SDS011;5458;51.496;7.334;2022-09-23T15:28:35;3.20;;;2.00;;
10811;SDS011;5458;51.496;7.334;2022-09-23T15:31:01;4.07;;;1.58;;
10811;SDS011;5458;51.496;7.334;2022-09-23T15:33:27;2.63;;;2.00;;
10811;SDS011;5458;51.496;7.334;2022-09-23T15:35:54;4.75;;;1.83;;
10811;SDS011;5458;51.496;7.334;2022-09-23T15:38:20;3.63;;;2.42;;
10811;SDS011;5458;51.496;7.334;2022-09-23T15:40:46;2.40;;;1.83;;
10811;SDS011;5458;51.496;7.334;2022-09-23T15:43:16;5.75;;;2.10;;
10811;SDS011;5458;51.496;7.334;2022-09-23T15:45:46;3.72;;;1.95;;
10811;SDS011;5458;51.496;7.334;2022-09-23T15:48:44;5.63;;;2.05;;
10811;SDS011;5458;51.496;7.334;2022-09-23T15:51:14;4.78;;;2.13;;
10811;SDS011;5458;51.496;7.334;2022-09-23T15:53:40;2.55;;;2.05;;
10811;SDS011;5458;51.496;7.334;2022-09-23T15:56:06;6.53;;;2.17;;
10811;SDS011;5458;51.496;7.334;2022-09-23T15:58:32;2.13;;;1.60;;
10811;SDS011;5458;51.496;7.334;2022-09-23T16:00:57;4.70;;;2.45;;
10811;SDS011;5458;51.496;7.334;2022-09-23T16:03:25;2.55;;;2.10;;
10811;SDS011;5458;51.496;7.334;2022-09-23T16:05:54;4.55;;;2.42;;
10811;SDS011;5458;51.496;7.334;2022-09-23T16:08:23;4.93;;;2.17;;
10811;SDS011;5458;51.496;7.334;2022-09-23T16:10:49;3.22;;;1.83;;
10811;SDS011;5458;51.496;7.334;2022-09-23T16:13:16;3.78;;;2.28;;
10811;SDS011;5458;51.496;7.334;2022-09-23T16:15:42;4.70;;;2.75;;
10811;SDS011;5458;51.496;7.334;2022-09-23T16:18:08;3.35;;;1.92;;
10811;SDS011;5458;51.496;7.334;2022-09-23T16:20:36;4.82;;;2.47;;
10811;SDS011;5458;51.496;7.334;2022-09-23T16:23:04;6.30;;;2.60;;
10811;SDS011;5458;51.496;7.334;2022-09-23T16:25:32;4.80;;;2.58;;
10811;SDS011;5458;51.496;7.334;2022-09-23T16:28:01;3.75;;;2.00;;
10811;SDS011;5458;51.496;7.334;2022-09-23T16:30:28;5.95;;;3.05;;
10811;SDS011;5458;51.496;7.334;2022-09-23T16:32:55;3.38;;;2.47;;
10811;SDS011;5458;51.496;7.334;2022-09-23T16:35:21;4.28;;;2.50;;
10811;SDS011;5458;51.496;7.334;2022-09-23T16:37:49;6.75;;;2.50;;
10811;SDS011;5458;51.496;7.334;2022-09-23T16:40:17;2.88;;;2.22;;
10811;SDS011;5458;51.496;7.334;2022-09-23T16:42:48;3.55;;;2.03;;
10811;SDS011;5458;51.496;7.334;2022-09-23T16:45:16;6.13;;;2.10;;
10811;SDS011;5458;51.496;7.334;2022-09-23T16:47:46;5.25;;;2.20;;
10811;SDS011;5458;51.496;7.334;2022-09-23T16:50:14;6.20;;;2.88;;
10811;SDS011;5458;51.496;7.334;2022-09-23T16:52:42;7.47;;;2.88;;
10811;SDS011;5458;51.496;7.334;2022-09-23T16:55:09;4.90;;;2.45;;
10811;SDS011;5458;51.496;7.334;2022-09-23T16:57:36;5.05;;;2.15;;
10811;SDS011;5458;51.496;7.334;2022-09-23T17:00:07;5.47;;;3.97;;
10811;SDS011;5458;51.496;7.334;2022-09-23T17:02:55;6.95;;;3.25;;
10811;SDS011;5458;51.496;7.334;2022-09-23T17:05:39;4.60;;;2.75;;
10811;SDS011;5458;51.496;7.334;2022-09-23T17:08:05;4.78;;;2.78;;
10811;SDS011;5458;51.496;7.334;2022-09-23T17:10:31;3.95;;;2.72;;
10811;SDS011;5458;51.496;7.334;2022-09-23T17:12:57;8.77;;;3.00;;
10811;SDS011;5458;51.496;7.334;2022-09-23T17:15:24;5.18;;;2.53;;
10811;SDS011;5458;51.496;7.334;2022-09-23T17:17:50;4.65;;;2.95;;
10811;SDS011;5458;51.496;7.334;2022-09-23T17:20:16;4.18;;;2.90;;
10811;SDS011;5458;51.496;7.334;2022-09-23T17:22:41;5.70;;;3.38;;
10811;SDS011;5458;51.496;7.334;2022-09-23T17:25:08;4.53;;;2.85;;
10811;SDS011;5458;51.496;7.334;2022-09-23T17:27:33;5.63;;;3.30;;
10811;SDS011;5458;51.496;7.334;2022-09-23T17:30:00;5.22;;;3.00;;
10811;SDS011;5458;51.496;7.334;2022-09-23T17:32:25;6.78;;;3.63;;
10811;SDS011;5458;51.496;7.334;2022-09-23T17:34:51;5.97;;;3.60;;
10811;SDS011;5458;51.496;7.334;2022-09-23T17:37:17;5.00;;;3.60;;
10811;SDS011;5458;51.496;7.334;2022-09-23T17:39:43;7.97;;;4.47;;
10811;SDS011;5458;51.496;7.334;2022-09-23T17:42:09;7.15;;;4.70;;
10811;SDS011;5458;51.496;7.334;2022-09-23T17:44:34;4.95;;;3.83;;
10811;SDS011;5458;51.496;7.334;2022-09-23T17:47:00;7.80;;;4.18;;
10811;SDS011;5458;51.496;7.334;2022-09-23T17:49:27;7.60;;;4.72;;
10811;SDS011;5458;51.496;7.334;2022-09-23T17:51:52;27.02;;;17.48;;
10811;SDS011;5458;51.496;7.334;2022-09-23T17:54:20;30.60;;;19.55;;
10811;SDS011;5458;51.496;7.334;2022-09-23T17:56:46;29.25;;;21.02;;
10811;SDS011;5458;51.496;7.334;2022-09-23T17:59:12;42.97;;;29.58;;